Terminal Aerodrome Forecast
Issued by NWS

Current Version | Previous Version | Text Only | Print | Product List | Glossary On
Versions: 1 2 3 4 5 6 7 8 9 10 11 12 13 14 15 16 17 18
000
FTUS43 KGRR 281725
TAFLAN
TAF
KLAN 281725Z 2818/2918 24008KT P6SM SCT040
     FM290100 14004KT P6SM SKC
     FM291200 19012G20KT P6SM BKN100=

USA.gov is the U.S. government's official web portal to all federal, state and local government web resources and services.